Time;durP1;ratioP1;P1;durP2;ratioP2;P2;SDS_P1;SDS_P2;PMS_P1;PMS_P2;Temp;Humidity;BMP_temperature;BMP_pressure;BME280_temperature;BME280_humidity;BME280_pressure;Samples;Min_cycle;Max_cycle;Signal;HPM_P1;HPM_P2
2022/05/22 00:01:53;;;;;;;0.60;0.60;;;;;;;5.25;49.84;98020.03;4994476;28;20057;-87
2022/05/22 00:04:21;;;;;;;0.50;0.50;;;;;;;5.11;49.80;98008.75;5011739;28;20041;-87
2022/05/22 00:06:48;;;;;;;0.45;0.45;;;;;;;5.08;49.90;98003.88;5011918;28;20046;-87
2022/05/22 00:09:15;;;;;;;0.40;0.40;;;;;;;5.17;50.02;98023.88;5011521;28;20054;-86
2022/05/22 00:11:42;;;;;;;0.57;0.57;;;;;;;4.98;49.84;98006.31;5012206;28;20058;-86
2022/05/22 00:14:13;;;;;;;0.50;0.50;;;;;;;5.08;49.73;98025.25;5012005;28;20050;-87
2022/05/22 00:16:41;;;;;;;0.40;0.40;;;;;;;5.13;49.77;98022.69;4994953;28;20045;-86
2022/05/22 00:19:15;;;;;;;0.60;0.60;;;;;;;5.09;49.93;98021.56;4994303;28;20049;-88
2022/05/22 00:21:43;;;;;;;0.60;0.60;;;;;;;5.03;50.16;98022.47;5015968;28;20058;-86
2022/05/22 00:24:16;;;;;;;0.60;0.60;;;;;;;4.94;50.32;98013.19;5017647;28;20468;-88
2022/05/22 00:26:47;;;;;;;0.50;0.50;;;;;;;4.96;50.19;98021.75;5013668;28;20050;-87
2022/05/22 00:29:17;;;;;;;0.60;0.60;;;;;;;4.83;50.48;98005.97;5023282;28;20069;-88
2022/05/22 00:31:46;;;;;;;0.60;0.60;;;;;;;4.89;50.45;98018.41;5025793;28;20064;-87
2022/05/22 00:34:14;;;;;;;0.60;0.60;;;;;;;4.90;50.39;98025.38;5025032;28;20065;-87
2022/05/22 00:36:41;;;;;;;0.50;0.50;;;;;;;4.84;50.69;98024.44;4978072;28;20042;-89
2022/05/22 00:39:08;;;;;;;0.60;0.60;;;;;;;4.74;50.72;98008.97;5011176;28;20050;-87
2022/05/22 00:41:36;;;;;;;0.55;0.55;;;;;;;4.80;50.71;98017.13;4994134;28;20500;-87
2022/05/22 00:44:04;;;;;;;0.55;0.55;;;;;;;4.76;50.84;98011.41;5011703;28;20046;-87
2022/05/22 00:46:33;;;;;;;0.50;0.50;;;;;;;4.74;51.29;98027.69;4978206;28;20046;-88
2022/05/22 00:49:09;;;;;;;0.52;0.52;;;;;;;4.68;51.18;98007.22;5011631;28;20053;-87
2022/05/22 00:51:51;;;;;;;0.40;0.40;;;;;;;4.51;51.22;97984.91;4993796;28;20057;-87
2022/05/22 00:54:36;;;;;;;0.60;0.60;;;;;;;4.55;51.70;98000.22;5011857;28;20077;-87
2022/05/22 00:57:18;;;;;;;0.70;0.70;;;;;;;4.62;52.07;98015.34;5011158;28;20070;-87
2022/05/22 00:59:50;;;;;;;0.40;0.40;;;;;;;4.50;52.28;98002.78;5012547;28;20417;-88
2022/05/22 01:02:18;;;;;;;0.50;0.50;;;;;;;4.45;52.42;97994.63;5012989;28;20077;-88
2022/05/22 01:04:48;;;;;;;0.52;0.52;;;;;;;4.53;52.68;98012.19;4980816;28;20096;-87
2022/05/22 01:07:17;;;;;;;0.60;0.60;;;;;;;4.50;52.67;98002.78;4996776;28;20060;-88
2022/05/22 01:09:45;;;;;;;0.50;0.50;;;;;;;4.49;52.84;98016.38;4964812;28;20456;-89
2022/05/22 01:12:16;;;;;;;0.60;0.60;;;;;;;4.39;53.30;98008.91;5014046;28;20050;-88
2022/05/22 01:14:48;;;;;;;0.60;0.60;;;;;;;4.31;53.14;97996.72;4980800;28;20052;-88
2022/05/22 01:17:16;;;;;;;0.70;0.70;;;;;;;4.41;53.22;98019.38;4996430;28;20550;-88
2022/05/22 01:19:57;;;;;;;0.60;0.60;;;;;;;4.27;53.36;97992.03;5014221;28;20050;-86
2022/05/22 01:22:30;;;;;;;0.50;0.50;;;;;;;4.32;53.42;97992.97;5013172;28;20046;-87
2022/05/22 01:24:58;;;;;;;0.60;0.60;;;;;;;4.17;53.58;97981.09;4996575;28;20052;-87
2022/05/22 01:27:26;;;;;;;0.60;0.60;;;;;;;4.27;53.65;97998.19;4996351;28;20074;-87
2022/05/22 01:30:26;;;;;;;0.63;0.63;;;;;;;4.30;53.43;98003.09;5013563;28;20504;-86
2022/05/22 01:33:12;;;;;;;0.60;0.60;;;;;;;4.24;53.81;97997.84;5013569;28;20046;-86
2022/05/22 01:35:40;;;;;;;0.50;0.50;;;;;;;4.24;53.80;97987.97;4980419;28;20052;-87
2022/05/22 01:38:08;;;;;;;0.50;0.50;;;;;;;4.11;53.66;97972.16;5014308;28;20073;-87
2022/05/22 01:40:39;;;;;;;0.60;0.60;;;;;;;4.21;53.53;97991.09;4996879;28;20493;-87
2022/05/22 01:43:07;;;;;;;0.60;0.60;;;;;;;4.20;53.27;98000.16;4984240;28;20069;-87
2022/05/22 01:45:36;;;;;;;0.50;0.50;;;;;;;4.17;53.56;97989.91;4982888;28;20050;-87
2022/05/22 01:48:03;;;;;;;0.50;0.50;;;;;;;4.06;53.45;97974.69;4996203;28;20528;-87
2022/05/22 01:50:38;;;;;;;0.60;0.60;;;;;;;4.18;53.29;97986.22;4965389;28;20053;-87
2022/05/22 01:53:08;;;;;;;0.50;0.50;;;;;;;4.16;53.32;97990.97;4981646;28;20046;-87
2022/05/22 01:55:35;;;;;;;0.60;0.60;;;;;;;4.12;53.04;97969.25;5014767;28;20050;-86
2022/05/22 01:58:06;;;;;;;0.60;0.60;;;;;;;4.15;52.79;97962.63;5015170;28;20536;-87
2022/05/22 02:00:36;;;;;;;0.50;0.50;;;;;;;4.22;52.77;97982.03;4997887;28;20125;-87
2022/05/22 02:03:04;;;;;;;0.60;0.60;;;;;;;4.28;52.73;97981.16;4996700;28;20531;-87
2022/05/22 02:05:33;;;;;;;0.70;0.70;;;;;;;4.25;52.67;97978.91;4996375;28;20045;-87
2022/05/22 02:08:22;;;;;;;0.50;0.50;;;;;;;4.18;52.85;97972.88;4980078;28;20108;-86
2022/05/22 02:10:56;;;;;;;0.60;0.60;;;;;;;4.26;52.70;97982.41;4995859;28;20096;-87
2022/05/22 02:13:28;;;;;;;0.60;0.60;;;;;;;4.24;52.65;97974.63;4996302;28;20092;-87
2022/05/22 02:15:55;;;;;;;0.55;0.55;;;;;;;4.22;52.54;97968.69;4996356;28;20654;-87
2022/05/22 02:18:23;;;;;;;0.50;0.50;;;;;;;4.18;52.60;97956.00;4996339;28;20046;-87
2022/05/22 02:20:50;;;;;;;0.60;0.60;;;;;;;4.15;52.41;97945.78;4995985;28;20045;-87
2022/05/22 02:23:19;;;;;;;0.60;0.60;;;;;;;4.37;52.23;97973.59;5013180;28;20058;-86
2022/05/22 02:25:50;;;;;;;0.50;0.50;;;;;;;4.42;52.22;97970.25;4996033;28;20049;-86
2022/05/22 02:28:18;;;;;;;0.60;0.60;;;;;;;4.46;52.16;97966.09;5012790;28;20050;-87
2022/05/22 02:30:53;;;;;;;0.60;0.60;;;;;;;4.47;52.04;97967.69;4947656;28;20057;-87
2022/05/22 02:33:26;;;;;;;0.60;0.60;;;;;;;4.47;51.86;97965.03;4996003;28;20185;-87
2022/05/22 02:36:00;;;;;;;0.60;0.60;;;;;;;4.42;51.99;97962.22;4995722;28;20054;-88
2022/05/22 02:38:34;;;;;;;0.70;0.70;;;;;;;4.38;51.81;97951.22;5012818;28;20089;-87
2022/05/22 02:41:15;;;;;;;0.60;0.60;;;;;;;4.48;51.67;97961.31;5000509;28;20078;-87
2022/05/22 02:43:48;;;;;;;0.60;0.60;;;;;;;4.55;51.46;97978.03;5007139;28;20046;-87
2022/05/22 02:46:17;;;;;;;0.60;0.60;;;;;;;4.65;51.55;97972.94;4995367;28;20065;-86
2022/05/22 02:48:46;;;;;;;0.60;0.60;;;;;;;4.46;51.31;97952.72;5014236;28;20050;-86
2022/05/22 02:51:16;;;;;;;0.57;0.57;;;;;;;4.70;51.41;97982.94;4989725;28;20073;-88
2022/05/22 02:53:43;;;;;;;0.70;0.70;;;;;;;4.64;51.01;97957.16;4995987;28;20130;-87
2022/05/22 02:56:22;;;;;;;0.60;0.60;;;;;;;4.62;51.09;97957.38;4979735;28;20416;-87
2022/05/22 02:59:07;;;;;;;0.55;0.55;;;;;;;4.76;51.21;97980.16;5013402;28;20046;-87
2022/05/22 03:01:57;;;;;;;0.60;0.60;;;;;;;4.80;51.19;97971.69;4987262;28;20112;-88
2022/05/22 03:04:26;;;;;;;0.60;0.60;;;;;;;4.77;51.26;97963.06;4985024;28;20065;-87
2022/05/22 03:07:01;;;;;;;0.60;0.60;;;;;;;4.74;50.80;97939.47;4986268;28;20133;-87
2022/05/22 03:09:28;;;;;;;0.60;0.60;;;;;;;4.96;50.85;97973.63;5005577;28;20053;-87
2022/05/22 03:11:55;;;;;;;0.60;0.60;;;;;;;4.97;50.62;97973.41;4998658;28;20050;-84
2022/05/22 03:14:24;;;;;;;0.60;0.60;;;;;;;5.02;50.67;97970.03;4982995;28;20084;-84
2022/05/22 03:16:53;;;;;;;0.60;0.60;;;;;;;5.10;50.57;97969.69;4966052;28;20050;-85
2022/05/22 03:19:34;;;;;;;0.60;0.60;;;;;;;5.05;50.61;97950.03;4981998;28;20691;-85
2022/05/22 03:22:03;;;;;;;0.60;0.60;;;;;;;5.10;50.52;97964.34;4988364;28;20486;-84
2022/05/22 03:24:32;;;;;;;0.60;0.60;;;;;;;5.21;50.43;97978.72;4965783;28;20054;-86
2022/05/22 03:27:05;;;;;;;0.60;0.60;;;;;;;5.21;50.57;97971.50;4975872;28;20421;-85
2022/05/22 03:29:33;;;;;;;0.60;0.60;;;;;;;5.26;50.48;97972.69;4975633;28;20050;-87
2022/05/22 03:32:00;;;;;;;0.68;0.68;;;;;;;5.28;50.26;97976.75;4959617;28;20073;-84
2022/05/22 03:34:29;;;;;;;0.60;0.60;;;;;;;5.18;50.45;97955.13;4959144;28;20053;-82
2022/05/22 03:36:57;;;;;;;0.60;0.60;;;;;;;5.32;50.22;97971.75;4976409;28;20046;-84
2022/05/22 03:39:24;;;;;;;0.60;0.60;;;;;;;5.23;50.11;97949.91;5011361;28;20073;-85
2022/05/22 03:41:52;;;;;;;0.60;0.60;;;;;;;5.30;50.04;97960.47;4971087;28;20162;-84
2022/05/22 03:44:22;;;;;;;0.52;0.52;;;;;;;5.47;50.03;97976.59;4970739;28;20063;-87
2022/05/22 03:46:50;;;;;;;0.50;0.50;;;;;;;5.48;49.80;97968.34;4971980;28;20073;-87
2022/05/22 03:49:24;;;;;;;0.60;0.60;;;;;;;5.48;49.71;97954.94;4971360;28;20061;-91
2022/05/22 03:51:57;;;;;;;0.57;0.57;;;;;;;5.66;49.70;97959.31;4970685;28;20051;-86
2022/05/22 03:54:25;;;;;;;0.50;0.50;;;;;;;5.76;49.70;97970.22;4970944;28;20063;-87
2022/05/22 03:56:56;;;;;;;0.60;0.60;;;;;;;5.68;49.50;97949.19;4955141;28;20096;-85
2022/05/22 03:59:31;;;;;;;0.60;0.60;;;;;;;5.69;49.74;97945.44;4953666;28;20105;-86
2022/05/22 04:01:59;;;;;;;0.50;0.50;;;;;;;5.93;49.73;97964.13;4935790;28;20096;-84
2022/05/22 04:04:27;;;;;;;0.65;0.65;;;;;;;5.90;49.41;97948.50;4937385;28;20081;-85
2022/05/22 04:06:56;;;;;;;0.60;0.60;;;;;;;6.04;49.49;97944.53;4954074;28;20473;-85
2022/05/22 04:09:28;;;;;;;0.60;0.60;;;;;;;6.23;49.05;97958.53;4953678;28;20042;-84
2022/05/22 04:12:11;;;;;;;0.70;0.70;;;;;;;6.34;48.79;97949.59;4972333;28;20077;-84
2022/05/22 04:14:40;;;;;;;0.70;0.70;;;;;;;6.32;48.19;97949.00;4978339;28;20042;-83
2022/05/22 04:17:10;;;;;;;0.60;0.60;;;;;;;6.31;48.59;97950.09;4994044;28;20057;-85
2022/05/22 04:19:38;;;;;;;0.70;0.70;;;;;;;6.41;48.05;97958.28;4965685;28;20097;-85
2022/05/22 04:22:08;;;;;;;0.60;0.60;;;;;;;6.48;47.94;97953.59;4973949;28;20045;-84
2022/05/22 04:27:29;;;;;;;0.70;0.70;;;;;;;6.62;47.78;97951.38;4994148;28;20412;-86
2022/05/22 04:29:58;;;;;;;0.63;0.63;;;;;;;6.69;47.83;97948.53;4994930;28;20054;-84
2022/05/22 04:32:29;;;;;;;0.60;0.60;;;;;;;6.86;47.70;97951.19;4979245;28;20145;-85
2022/05/22 04:34:58;;;;;;;0.68;0.68;;;;;;;6.89;47.49;97945.34;4997673;28;20100;-90
2022/05/22 04:37:28;;;;;;;0.60;0.60;;;;;;;7.03;47.39;97948.47;4987016;28;20041;-87
2022/05/22 04:39:58;;;;;;;0.60;0.60;;;;;;;7.16;46.76;97942.75;4982172;28;20056;-86
2022/05/22 04:42:26;;;;;;;0.60;0.60;;;;;;;7.18;46.73;97943.31;4982484;28;20566;-85
2022/05/22 04:44:54;;;;;;;0.60;0.60;;;;;;;7.13;46.51;97944.06;4980408;28;20373;-84
2022/05/22 04:47:39;;;;;;;0.60;0.60;;;;;;;7.18;46.55;97937.16;4995142;28;20058;-88
2022/05/22 04:50:29;;;;;;;0.60;0.60;;;;;;;7.27;46.38;97935.66;4974118;28;20061;-88
2022/05/22 04:53:16;;;;;;;0.60;0.60;;;;;;;7.31;46.25;97940.25;4974724;28;20053;-87
2022/05/22 04:56:10;;;;;;;0.50;0.50;;;;;;;7.41;46.17;97936.09;4935740;29;20064;-85
2022/05/22 04:58:48;;;;;;;0.60;0.60;;;;;;;7.47;45.91;97943.13;4919620;29;20107;-87
2022/05/22 05:01:17;;;;;;;0.50;0.50;;;;;;;7.59;45.26;97957.25;4919393;29;20067;-86
2022/05/22 05:04:04;;;;;;;0.50;0.50;;;;;;;7.59;45.44;97935.75;4903655;29;20048;-87
2022/05/22 05:06:46;;;;;;;0.57;0.57;;;;;;;7.78;45.29;97950.50;4906061;29;20056;-88
2022/05/22 05:09:33;;;;;;;0.50;0.50;;;;;;;7.70;45.14;97928.66;4934856;29;20423;-86
2022/05/22 05:12:07;;;;;;;;;;;;;;;7.91;45.61;97941.22;4905376;29;20511;-87
2022/05/22 05:14:34;;;;;;;0.60;0.60;;;;;;;8.02;44.89;97948.31;4935098;29;20025;-86
2022/05/22 05:17:08;;;;;;;0.60;0.60;;;;;;;7.84;45.03;97926.38;4903552;29;20043;-87
2022/05/22 05:19:37;;;;;;;0.60;0.60;;;;;;;8.03;45.25;97935.72;4919341;29;20052;-88
2022/05/22 05:22:04;;;;;;;0.60;0.60;;;;;;;8.16;45.02;97929.91;4935688;29;20456;-87
2022/05/22 05:24:32;;;;;;;0.60;0.60;;;;;;;8.36;44.69;97939.25;4919867;29;20043;-87
2022/05/22 05:27:01;;;;;;;0.60;0.60;;;;;;;8.34;43.92;97930.63;4924824;29;20122;-86
2022/05/22 05:29:59;;;;;;;0.60;0.60;;;;;;;8.10;44.15;97930.94;4938308;29;20043;-87
2022/05/22 05:32:34;;;;;;;0.60;0.60;;;;;;;8.27;44.47;97932.69;4954868;28;20142;-87
2022/05/22 05:35:07;;;;;;;0.60;0.60;;;;;;;8.19;44.30;97936.66;4997081;28;20080;-87
2022/05/22 05:37:34;;;;;;;0.60;0.60;;;;;;;8.30;44.68;97927.59;4981037;28;20164;-87
2022/05/22 05:40:14;;;;;;;0.60;0.60;;;;;;;8.41;44.85;97920.50;4982581;28;20054;-88
2022/05/22 05:42:42;;;;;;;0.50;0.50;;;;;;;8.55;43.88;97932.41;5014900;28;20050;-87
2022/05/22 05:45:13;;;;;;;0.60;0.60;;;;;;;8.46;44.20;97942.84;4996543;28;20074;-86
2022/05/22 05:47:48;;;;;;;0.60;0.60;;;;;;;8.45;43.57;97943.09;4981196;28;20074;-87
2022/05/22 05:50:31;;;;;;;0.60;0.60;;;;;;;8.37;43.55;97940.84;4990776;28;20081;-87
2022/05/22 05:53:16;;;;;;;0.60;0.60;;;;;;;8.15;43.42;97914.03;4989738;28;20366;-88
2022/05/22 05:55:43;;;;;;;0.60;0.60;;;;;;;8.22;44.20;97939.63;4985876;28;20050;-86
2022/05/22 05:58:49;;;;;;;0.63;0.63;;;;;;;8.43;43.32;97948.75;4982349;28;20054;-86
2022/05/22 06:01:30;;;;;;;0.60;0.60;;;;;;;8.59;42.80;97940.78;4992010;28;20050;-89
2022/05/22 06:03:58;;;;;;;0.60;0.60;;;;;;;8.67;42.25;97932.25;4666040;28;10000487;-88
2022/05/22 06:06:27;;;;;;;0.60;0.60;;;;;;;8.62;41.65;97914.19;4962170;28;20043;-89
2022/05/22 06:08:58;;;;;;;0.60;0.60;;;;;;;8.81;41.77;97938.81;4967268;28;20113;-87
2022/05/22 06:11:28;;;;;;;0.60;0.60;;;;;;;9.05;41.48;97947.28;4996682;28;20046;-88
2022/05/22 06:14:01;;;;;;;0.57;0.57;;;;;;;9.01;40.79;97940.00;4989322;28;20050;-86
2022/05/22 06:16:29;;;;;;;0.60;0.60;;;;;;;8.93;40.87;97943.97;5012209;28;20045;-86
2022/05/22 06:19:01;;;;;;;0.60;0.60;;;;;;;8.99;40.61;97936.75;5007857;28;20042;-88
2022/05/22 06:21:28;;;;;;;0.60;0.60;;;;;;;8.97;40.40;97950.47;5008904;28;20053;-87
2022/05/22 06:23:56;;;;;;;0.60;0.60;;;;;;;9.10;40.34;97939.25;4958021;28;20505;-86
2022/05/22 06:26:42;;;;;;;0.70;0.70;;;;;;;9.11;40.06;97924.72;4957202;28;20054;-85
2022/05/22 06:29:29;;;;;;;0.60;0.60;;;;;;;9.32;40.39;97947.16;4972407;28;20183;-84
2022/05/22 06:32:26;;;;;;;0.60;0.60;;;;;;;9.41;39.92;97942.09;4989606;28;20054;-86
2022/05/22 06:35:00;;;;;;;0.60;0.60;;;;;;;9.49;39.42;97946.94;4982314;28;20081;-94
2022/05/22 06:37:55;;;;;;;0.60;0.60;;;;;;;9.23;39.16;97919.13;4997089;28;20252;-89
2022/05/22 06:40:42;;;;;;;0.60;0.60;;;;;;;9.53;39.15;97941.88;4994534;28;20509;-86
2022/05/22 06:43:28;;;;;;;0.60;0.60;;;;;;;9.50;38.92;97913.59;5027281;28;20034;-88
2022/05/22 06:46:16;;;;;;;0.60;0.60;;;;;;;9.82;39.50;97938.72;5008823;28;20086;-90
2022/05/22 06:49:02;;;;;;;0.60;0.60;;;;;;;9.81;38.70;97943.31;4973748;28;20054;-89
2022/05/22 06:51:56;;;;;;;0.60;0.60;;;;;;;9.64;38.40;97956.97;5000235;28;20547;-89
2022/05/22 06:54:44;;;;;;;0.60;0.60;;;;;;;9.46;38.04;97935.91;4978224;28;20054;-89
2022/05/22 06:57:30;;;;;;;0.60;0.60;;;;;;;9.72;38.28;97952.97;5009655;28;20049;-90
2022/05/22 07:00:27;;;;;;;0.60;0.60;;;;;;;9.80;37.61;97930.91;5006394;28;20392;-89
2022/05/22 07:03:13;;;;;;;0.60;0.60;;;;;;;10.02;37.79;97949.56;4993921;28;20355;-94
2022/05/22 07:06:14;;;;;;;0.60;0.60;;;;;;;9.96;37.03;97932.56;4984782;28;20050;-88
2022/05/22 07:09:19;;;;;;;0.60;0.60;;;;;;;10.09;37.40;97941.22;4981014;28;20436;-89
2022/05/22 07:12:11;;;;;;;0.70;0.70;;;;;;;10.11;36.87;97931.78;4966268;28;20190;-88
2022/05/22 07:14:55;;;;;;;0.70;0.70;;;;;;;10.11;36.86;97944.47;4959575;28;20142;-90
2022/05/22 07:17:58;;;;;;;0.60;0.60;;;;;;;10.07;37.13;97946.06;4947973;28;20050;-93
2022/05/22 07:20:51;;;;;;;0.55;0.55;;;;;;;10.10;37.23;97921.25;4981005;28;20059;-90
2022/05/22 07:23:30;;;;;;;0.60;0.60;;;;;;;10.29;37.03;97938.56;4958591;28;20171;-90
2022/05/22 07:25:57;;;;;;;0.50;0.50;;;;;;;10.24;36.68;97925.06;4954505;28;20053;-90
2022/05/22 07:28:36;;;;;;;0.60;0.60;;;;;;;10.19;36.71;97933.13;4936875;28;20054;-90
2022/05/22 07:31:29;;;;;;;0.60;0.60;;;;;;;10.34;36.72;97933.19;4953969;28;20051;-88
2022/05/22 07:34:26;;;;;;;0.60;0.60;;;;;;;10.25;35.31;97932.06;4868438;29;20049;-87
2022/05/22 07:36:58;;;;;;;0.60;0.60;;;;;;;10.15;36.63;97935.56;4876322;29;20048;-88
2022/05/22 07:39:53;;;;;;;0.60;0.60;;;;;;;10.58;36.51;97941.56;4881895;29;20130;-90
2022/05/22 07:42:44;;;;;;;0.70;0.70;;;;;;;10.83;34.98;97921.00;4868748;29;20050;-88
2022/05/22 07:45:17;;;;;;;0.70;0.70;;;;;;;11.12;34.35;97934.72;4854533;29;20064;-90
2022/05/22 07:47:52;;;;;;;0.70;0.70;;;;;;;11.16;33.99;97933.09;4876443;29;20059;-87
2022/05/22 07:50:59;;;;;;;0.70;0.70;;;;;;;11.08;33.92;97939.06;4855395;29;20057;-88
2022/05/22 07:53:46;;;;;;;0.70;0.70;;;;;;;10.93;32.31;97893.19;4846649;29;20053;-90
2022/05/22 07:56:30;;;;;;;0.70;0.70;;;;;;;11.09;32.43;97911.00;4903929;29;20648;-91
2022/05/22 07:59:15;;;;;;;0.70;0.70;;;;;;;11.25;32.65;97923.34;4899180;29;20464;-90
2022/05/22 08:02:03;;;;;;;0.70;0.70;;;;;;;11.59;32.93;97933.47;4899888;29;20564;-90
2022/05/22 08:04:41;;;;;;;0.60;0.60;;;;;;;11.82;32.34;97931.22;4874206;29;20555;-90
2022/05/22 08:07:28;;;;;;;0.80;0.80;;;;;;;12.00;32.30;97929.78;4899619;29;20139;-87
2022/05/22 08:10:09;;;;;;;0.70;0.70;;;;;;;12.08;32.42;97905.69;4874668;29;20058;-88
2022/05/22 08:12:49;;;;;;;0.60;0.60;;;;;;;12.42;32.33;97920.31;4938844;29;20059;-87
2022/05/22 08:15:24;;;;;;;0.70;0.70;;;;;;;12.56;30.62;97924.78;4939329;29;20122;-86
2022/05/22 08:17:55;;;;;;;0.70;0.70;;;;;;;12.52;30.80;97901.28;4954566;29;20145;-88
2022/05/22 08:20:22;;;;;;;0.73;0.73;;;;;;;12.70;30.38;97918.72;5006803;28;20513;-88
2022/05/22 08:23:01;;;;;;;0.80;0.80;;;;;;;12.80;29.78;97913.19;4979760;28;20560;-88
2022/05/22 08:25:43;;;;;;;0.73;0.73;;;;;;;13.02;29.01;97910.81;4980150;28;20054;-89
2022/05/22 08:28:12;;;;;;;0.77;0.77;;;;;;;13.22;28.32;97904.38;4987303;28;20077;-85
2022/05/22 08:30:40;;;;;;;0.80;0.80;;;;;;;13.51;28.86;97916.25;5034707;28;20080;-88
2022/05/22 08:33:08;;;;;;;0.70;0.70;;;;;;;13.73;29.01;97913.00;5013983;28;20500;-86
2022/05/22 08:35:38;;;;;;;0.80;0.80;;;;;;;14.16;28.29;97927.31;5010974;28;20053;-88
2022/05/22 08:38:07;;;;;;;0.70;0.70;;;;;;;14.22;28.92;97915.28;4997704;28;20416;-87
2022/05/22 08:41:10;;;;;;;0.75;0.75;;;;;;;14.43;28.02;97915.78;5007348;28;20543;-88
2022/05/22 08:43:51;;;;;;;0.70;0.70;;;;;;;14.58;26.58;97905.78;4958699;28;20187;-89
2022/05/22 08:46:42;;;;;;;0.70;0.70;;;;;;;14.87;26.75;97902.84;5034751;28;20080;-88
2022/05/22 08:49:24;;;;;;;0.70;0.70;;;;;;;15.07;25.80;97901.66;5020109;28;20056;-87
2022/05/22 08:51:55;;;;;;;0.70;0.70;;;;;;;15.14;25.89;97891.19;4980925;28;20062;-88
2022/05/22 08:54:32;;;;;;;0.77;0.77;;;;;;;15.06;25.74;97879.09;4995696;28;20509;-89
2022/05/22 09:00:00;;;;;;;0.80;0.80;;;;;;;15.51;25.80;97865.72;4982388;28;20054;-89
2022/05/22 09:02:41;;;;;;;0.80;0.80;;;;;;;16.06;25.57;97904.81;4978206;28;20074;-88
2022/05/22 09:05:12;;;;;;;0.80;0.80;;;;;;;16.36;24.88;97878.81;4978485;28;20460;-89
2022/05/22 09:07:55;;;;;;;0.70;0.70;;;;;;;16.28;24.05;97901.31;4963491;28;20053;-90
2022/05/22 09:10:35;;;;;;;0.80;0.80;;;;;;;15.96;23.88;97893.06;5011714;28;20153;-88
2022/05/22 09:13:10;;;;;;;0.80;0.80;;;;;;;15.96;23.83;97909.38;4995974;28;20061;-89
2022/05/22 09:16:09;;;;;;;;;;;;;;;16.42;23.83;97904.78;4981600;28;20138;-89
2022/05/22 09:18:58;;;;;;;0.80;0.80;;;;;;;16.67;23.67;97895.19;4994647;28;19941;-89
2022/05/22 09:21:32;;;;;;;0.70;0.70;;;;;;;16.60;23.03;97900.25;4976548;28;20078;-89
2022/05/22 09:24:08;;;;;;;0.90;0.90;;;;;;;16.63;23.10;97894.97;4979022;28;20070;-88
2022/05/22 09:27:09;;;;;;;0.80;0.80;;;;;;;16.59;22.34;97904.09;4980544;28;20077;-86
2022/05/22 09:29:37;;;;;;;0.80;0.80;;;;;;;16.34;24.05;97884.56;4997577;28;20057;-87
2022/05/22 09:32:22;;;;;;;0.80;0.80;;;;;;;17.01;23.34;97894.56;4980253;28;20077;-87
2022/05/22 09:35:11;;;;;;;0.80;0.80;;;;;;;17.54;22.28;97899.09;4997407;28;20053;-87
2022/05/22 09:37:53;;;;;;;0.80;0.80;;;;;;;17.84;22.07;97893.09;4976812;28;20413;-88
2022/05/22 09:40:42;;;;;;;0.80;0.80;;;;;;;18.18;21.75;97884.94;4995274;28;20077;-86
2022/05/22 09:43:45;;;;;;;0.80;0.80;;;;;;;18.29;21.01;97892.81;4994566;28;20070;-88
2022/05/22 09:46:32;;;;;;;0.80;0.80;;;;;;;18.20;20.32;97890.06;4996370;28;20057;-87
2022/05/22 09:49:22;;;;;;;0.82;0.82;;;;;;;17.51;20.88;97882.56;4994844;28;20580;-87
2022/05/22 09:52:17;;;;;;;0.70;0.70;;;;;;;17.69;21.20;97884.22;4994435;28;20050;-88
2022/05/22 09:55:25;;;;;;;0.80;0.80;;;;;;;17.29;20.24;97869.84;4994671;28;20046;-87
2022/05/22 09:58:08;;;;;;;0.90;0.90;;;;;;;18.17;20.76;97880.59;4979276;28;20306;-87
2022/05/22 10:00:58;;;;;;;0.80;0.80;;;;;;;18.45;19.63;97885.72;4977102;28;20054;-86
2022/05/22 10:04:11;;;;;;;0.80;0.80;;;;;;;18.47;19.34;97864.34;4960383;28;20046;-88
2022/05/22 10:07:19;;;;;;;0.80;0.80;;;;;;;18.43;19.14;97879.75;4933088;29;20087;-88
2022/05/22 10:10:23;;;;;;;0.80;0.80;;;;;;;19.16;19.58;97884.44;4924247;29;20062;-88
2022/05/22 10:13:25;;;;;;;0.80;0.80;;;;;;;19.38;18.23;97881.44;4933424;29;20111;-88
2022/05/22 10:16:21;;;;;;;0.70;0.70;;;;;;;20.22;18.38;97875.28;4914352;29;20052;-87
2022/05/22 10:18:58;;;;;;;0.80;0.80;;;;;;;20.33;17.68;97874.53;4930211;29;20075;-88
2022/05/22 10:21:49;;;;;;;0.80;0.80;;;;;;;19.73;17.54;97845.69;4914085;29;20131;-87
2022/05/22 10:24:18;;;;;;;0.75;0.75;;;;;;;19.68;17.52;97878.75;4914007;29;20158;-85
2022/05/22 10:27:08;;;;;;;0.70;0.70;;;;;;;19.83;17.62;97845.31;4914251;29;20063;-87
2022/05/22 10:29:54;;;;;;;0.70;0.70;;;;;;;19.79;17.39;97876.41;4914366;29;20128;-88
2022/05/22 10:32:26;;;;;;;0.80;0.80;;;;;;;20.51;16.67;97863.41;4882452;29;20519;-87
2022/05/22 10:35:30;;;;;;;0.80;0.80;;;;;;;20.71;16.13;97873.56;4914725;29;20052;-87
2022/05/22 10:38:16;;;;;;;0.80;0.80;;;;;;;20.94;16.18;97870.38;4911387;29;20062;-87
2022/05/22 10:43:37;;;;;;;0.80;0.80;;;;;;;21.45;15.01;97865.44;4958163;28;20085;-87
2022/05/22 10:46:04;;;;;;;0.80;0.80;;;;;;;21.17;15.80;97868.84;4956742;29;20075;-87
2022/05/22 10:48:33;;;;;;;0.80;0.80;;;;;;;21.18;15.11;97872.38;4953691;29;20078;-88
2022/05/22 10:51:06;;;;;;;0.70;0.70;;;;;;;20.67;15.85;97858.91;4924769;29;20085;-87
2022/05/22 10:53:49;;;;;;;0.80;0.80;;;;;;;20.84;16.03;97849.72;4984338;28;20465;-86
2022/05/22 10:56:19;;;;;;;0.80;0.80;;;;;;;21.32;15.96;97861.88;4975428;28;20177;-89
2022/05/22 10:58:54;;;;;;;0.75;0.75;;;;;;;21.50;15.83;97869.91;5013153;28;20445;-86
2022/05/22 11:01:25;;;;;;;0.70;0.70;;;;;;;21.73;15.62;97846.31;4996832;28;20428;-87
2022/05/22 11:04:16;;;;;;;0.70;0.70;;;;;;;22.14;15.29;97849.06;4997948;28;20050;-88
2022/05/22 11:06:57;;;;;;;0.70;0.70;;;;;;;22.46;15.08;97859.03;5001155;28;20046;-87
2022/05/22 11:09:29;;;;;;;0.70;0.70;;;;;;;21.65;15.22;97849.97;5007595;28;20406;-88
2022/05/22 11:12:11;;;;;;;0.70;0.70;;;;;;;21.95;15.42;97866.97;4975975;28;20568;-87
2022/05/22 11:14:39;;;;;;;0.70;0.70;;;;;;;22.18;14.94;97858.19;4993539;28;20506;-87
2022/05/22 11:17:19;;;;;;;0.70;0.70;;;;;;;22.29;15.30;97864.84;4982625;28;20526;-89
2022/05/22 11:19:55;;;;;;;0.70;0.70;;;;;;;21.93;15.63;97868.47;5019864;28;20045;-88
2022/05/22 11:22:40;;;;;;;0.80;0.80;;;;;;;22.52;15.40;97861.53;4983281;28;20555;-87
2022/05/22 11:25:31;;;;;;;0.70;0.70;;;;;;;22.45;15.19;97868.41;4993124;28;20436;-87
2022/05/22 11:28:37;;;;;;;0.70;0.70;;;;;;;22.79;15.21;97865.38;4996078;28;20054;-87
2022/05/22 11:31:28;;;;;;;0.80;0.80;;;;;;;22.16;15.29;97869.53;5005387;28;20056;-88
2022/05/22 11:34:19;;;;;;;0.75;0.75;;;;;;;21.82;15.75;97857.94;5005414;28;20050;-86
2022/05/22 11:36:59;;;;;;;0.70;0.70;;;;;;;21.76;15.63;97873.06;4984129;28;20050;-87
2022/05/22 11:39:45;;;;;;;0.70;0.70;;;;;;;21.97;15.58;97867.41;4997934;28;20057;-89
2022/05/22 11:42:39;;;;;;;0.70;0.70;;;;;;;22.11;15.27;97864.28;5005770;28;20258;-88
2022/05/22 11:45:06;;;;;;;0.70;0.70;;;;;;;22.23;15.63;97868.97;4994246;28;20046;-84
2022/05/22 11:47:48;;;;;;;0.70;0.70;;;;;;;22.67;14.82;97867.06;4990354;28;20508;-87
2022/05/22 11:50:42;;;;;;;0.70;0.70;;;;;;;22.76;15.74;97866.09;5005291;28;20149;-88
2022/05/22 11:53:45;;;;;;;0.70;0.70;;;;;;;22.57;15.17;97837.31;4986970;28;20078;-89
2022/05/22 11:56:42;;;;;;;0.70;0.70;;;;;;;22.78;15.08;97878.34;5010385;28;20058;-87
2022/05/22 11:59:49;;;;;;;0.75;0.75;;;;;;;23.68;14.81;97869.56;4995955;28;20050;-88
2022/05/22 12:02:18;;;;;;;0.70;0.70;;;;;;;23.53;14.88;97871.19;5011755;28;20046;-88
2022/05/22 12:05:11;;;;;;;0.63;0.63;;;;;;;23.64;14.38;97866.72;4993831;28;20071;-89
2022/05/22 12:08:23;;;;;;;0.70;0.70;;;;;;;23.98;14.69;97875.38;4983225;28;20076;-88
2022/05/22 12:10:59;;;;;;;0.70;0.70;;;;;;;23.75;15.27;97873.31;4974257;28;20058;-84
2022/05/22 12:13:56;;;;;;;0.70;0.70;;;;;;;24.57;15.09;97857.72;5000919;28;20054;-87
2022/05/22 12:16:25;;;;;;;0.70;0.70;;;;;;;24.34;14.54;97865.91;4976885;28;20182;-88
2022/05/22 12:19:08;;;;;;;0.70;0.70;;;;;;;24.47;13.83;97880.34;4999208;28;20448;-87
2022/05/22 12:22:08;;;;;;;0.70;0.70;;;;;;;23.40;14.33;97877.97;4999672;28;20054;-87
2022/05/22 12:24:57;;;;;;;0.70;0.70;;;;;;;23.10;15.05;97856.41;4920701;29;20728;-87
2022/05/22 12:27:33;;;;;;;0.70;0.70;;;;;;;23.95;15.07;97863.13;4915265;29;20051;-86
2022/05/22 12:30:03;;;;;;;0.70;0.70;;;;;;;24.29;15.00;97865.41;4925315;29;20135;-87
2022/05/22 12:32:38;;;;;;;0.70;0.70;;;;;;;24.54;14.42;97863.16;4903691;29;20056;-86
2022/05/22 12:35:05;;;;;;;0.70;0.70;;;;;;;24.97;14.53;97869.47;4917190;29;20518;-86
2022/05/22 12:37:46;;;;;;;0.63;0.63;;;;;;;25.19;13.60;97870.66;4912233;29;20045;-88
2022/05/22 12:40:19;;;;;;;0.70;0.70;;;;;;;25.76;13.55;97860.50;4926744;29;20095;-86